Hidrolina, Brazil
Current Conditions -  °F | °C
As of 12:00 AM on Thursday 23 Oct 2014 (Local Time) from SBAN Reporting Station
Thunderstorm Thunderstorm  
Wind Chill: 66°   Ceiling: 8000
Heat Index: 66°   Visibility: 4mi
Dew Point: 61°   Wind: 8mph
Humidity: 83%   Direction: 20°NNE
Pressure: 30.15"   Gusts: NA
Location:  14.72°S, 49.46°W
Report Text: SBAN 230200Z 02007KT 6000 -TSRA SCT030 FEW040CB OVC080 19/16 Q1021
Loading
Personal Weather Stations






























Interactive Weather Map
Tropical Storm Tracking
New forecast layout! Learn more

10-Day Weather Forecast

Advertisements
Track Severe Weather on mobile